Time;durP1;ratioP1;P1;durP2;ratioP2;P2;SDS_P1;SDS_P2;PMS_P1;PMS_P2;Temp;Humidity;BMP_temperature;BMP_pressure;BME280_temperature;BME280_humidity;BME280_pressure;Samples;Min_cycle;Max_cycle;Signal;HPM_P1;HPM_P2
2021/09/13 00:02:08;;;;;;;4.38;1.90;;;14.10;88.60;;;;;;4963365;28;20043;-67
2021/09/13 00:04:34;;;;;;;2.63;2.17;;;14.10;89.70;;;;;;4951885;28;20433;-67
2021/09/13 00:07:00;;;;;;;5.93;3.17;;;14.00;90.10;;;;;;4950543;28;20066;-68
2021/09/13 00:09:26;;;;;;;3.47;2.50;;;14.00;89.80;;;;;;4949657;28;20368;-68
2021/09/13 00:11:51;;;;;;;4.28;2.45;;;14.00;89.80;;;;;;4952938;28;20034;-67
2021/09/13 00:14:18;;;;;;;3.92;2.80;;;14.10;89.60;;;;;;4951634;28;20492;-68
2021/09/13 00:16:43;;;;;;;4.68;2.58;;;14.10;90.30;;;;;;4941198;28;20036;-68
2021/09/13 00:19:10;;;;;;;2.33;2.10;;;14.10;90.70;;;;;;4949207;28;20369;-67
2021/09/13 00:21:35;;;;;;;2.88;2.40;;;14.10;90.70;;;;;;4943182;28;20127;-67
2021/09/13 00:24:01;;;;;;;2.35;1.60;;;14.10;89.80;;;;;;4945417;28;20126;-68
2021/09/13 00:26:27;;;;;;;3.08;1.20;;;14.00;88.30;;;;;;4950524;28;20038;-67
2021/09/13 00:28:52;;;;;;;1.63;1.52;;;13.90;86.50;;;;;;4948657;28;20584;-67
2021/09/13 00:31:18;;;;;;;1.50;1.40;;;13.80;86.70;;;;;;4943802;28;20032;-67
2021/09/13 00:33:44;;;;;;;1.40;1.30;;;13.80;87.90;;;;;;4950598;28;20054;-67
2021/09/13 00:36:10;;;;;;;1.50;1.40;;;13.80;87.90;;;;;;4947466;28;20763;-68
2021/09/13 00:38:35;;;;;;;2.22;1.23;;;13.80;88.50;;;;;;4947282;28;20412;-67
2021/09/13 00:41:01;;;;;;;1.70;1.60;;;13.70;88.10;;;;;;4951986;28;20384;-67
2021/09/13 00:43:27;;;;;;;2.25;2.05;;;13.70;88.30;;;;;;4949289;28;20023;-68
2021/09/13 00:45:53;;;;;;;2.25;1.90;;;13.70;89.20;;;;;;4947142;28;20038;-67
2021/09/13 00:48:18;;;;;;;1.90;1.70;;;13.70;89.40;;;;;;4945670;28;20031;-68
2021/09/13 00:50:44;;;;;;;2.75;2.08;;;13.70;89.00;;;;;;4945436;28;20051;-67
2021/09/13 00:53:10;;;;;;;5.80;3.17;;;13.70;89.20;;;;;;4949973;28;20030;-67
2021/09/13 00:55:36;;;;;;;5.18;3.13;;;13.70;89.50;;;;;;4946890;28;20055;-67
2021/09/13 00:58:02;;;;;;;2.90;2.30;;;13.70;89.70;;;;;;4951655;28;20098;-67
2021/09/13 01:00:27;;;;;;;3.00;2.40;;;13.60;90.50;;;;;;4951764;28;20035;-67
2021/09/13 01:02:53;;;;;;;3.85;2.65;;;13.60;90.70;;;;;;4957111;28;20034;-68
2021/09/13 01:05:19;;;;;;;3.35;2.45;;;13.70;90.40;;;;;;4954607;28;20089;-68
2021/09/13 01:07:44;;;;;;;2.22;2.03;;;13.70;90.20;;;;;;4949466;28;20032;-68
2021/09/13 01:10:11;;;;;;;2.30;2.10;;;13.60;90.10;;;;;;4944494;28;20023;-68
2021/09/13 01:12:36;;;;;;;2.67;2.22;;;13.70;90.10;;;;;;4951343;28;20027;-69
2021/09/13 01:15:03;;;;;;;3.63;1.92;;;13.70;90.20;;;;;;4950653;28;20027;-68
2021/09/13 01:17:29;;;;;;;1.80;1.70;;;13.70;90.00;;;;;;4951339;28;20035;-68
2021/09/13 01:19:54;;;;;;;2.35;1.45;;;13.70;89.80;;;;;;4950675;28;20067;-68
2021/09/13 01:22:20;;;;;;;2.90;1.60;;;13.60;89.60;;;;;;4951916;29;20055;-68
2021/09/13 01:24:46;;;;;;;1.70;1.60;;;13.60;89.40;;;;;;4951430;28;20032;-67
2021/09/13 01:27:13;;;;;;;1.13;1.13;;;13.40;86.80;;;;;;4951530;28;20034;-68
2021/09/13 01:29:39;;;;;;;1.00;1.00;;;13.40;87.70;;;;;;4949557;28;20401;-68
2021/09/13 01:32:06;;;;;;;2.38;1.48;;;13.30;87.60;;;;;;4952058;28;20066;-69
2021/09/13 01:34:33;;;;;;;6.03;3.22;;;13.30;87.80;;;;;;4949945;28;20062;-68
2021/09/13 01:36:59;;;;;;;11.80;6.40;;;13.30;88.40;;;;;;4956446;28;20069;-68
2021/09/13 01:39:24;;;;;;;8.07;4.38;;;13.40;89.10;;;;;;4945100;28;20042;-68
2021/09/13 01:41:51;;;;;;;6.78;4.68;;;13.40;89.50;;;;;;4956636;28;20035;-68
2021/09/13 01:44:17;;;;;;;4.30;2.95;;;13.40;89.30;;;;;;4951295;28;20085;-68
2021/09/13 01:46:44;;;;;;;4.15;2.83;;;13.40;89.30;;;;;;4951947;28;20059;-67
2021/09/13 01:49:11;;;;;;;3.35;2.47;;;13.40;89.50;;;;;;4960482;28;20019;-67
2021/09/13 01:51:38;;;;;;;3.00;2.47;;;13.40;89.50;;;;;;4951747;29;20515;-68
2021/09/13 01:54:04;;;;;;;1.90;1.80;;;13.40;89.30;;;;;;4954586;28;20054;-68
2021/09/13 01:56:30;;;;;;;3.08;2.25;;;13.40;89.20;;;;;;4949823;28;20031;-68
2021/09/13 01:58:58;;;;;;;2.80;1.90;;;13.40;89.10;;;;;;4960289;28;20046;-68
2021/09/13 02:01:27;;;;;;;1.60;1.35;;;13.40;88.50;;;;;;4967532;28;20031;-67
2021/09/13 02:03:53;;;;;;;1.30;1.20;;;13.30;88.40;;;;;;4953304;28;20039;-68
2021/09/13 02:06:19;;;;;;;1.20;1.10;;;13.30;88.00;;;;;;4951210;28;20087;-68
2021/09/13 02:08:45;;;;;;;1.67;1.50;;;13.20;88.20;;;;;;4951114;28;20460;-68
2021/09/13 02:11:11;;;;;;;1.30;1.20;;;13.20;88.50;;;;;;4952754;28;20040;-68
2021/09/13 02:13:37;;;;;;;1.42;1.13;;;13.20;88.20;;;;;;4951612;28;20031;-67
2021/09/13 02:16:04;;;;;;;1.30;1.20;;;13.20;88.00;;;;;;4947494;28;20081;-68
2021/09/13 02:18:30;;;;;;;1.77;1.40;;;13.00;86.90;;;;;;4948881;28;20484;-67
2021/09/13 02:20:56;;;;;;;1.50;1.27;;;13.00;87.80;;;;;;4948149;28;20038;-67
2021/09/13 02:23:21;;;;;;;1.70;1.60;;;13.00;88.70;;;;;;4949821;28;20524;-68
2021/09/13 02:25:48;;;;;;;1.73;1.33;;;13.00;89.20;;;;;;4949637;28;20926;-68
2021/09/13 02:28:13;;;;;;;1.15;1.13;;;13.00;88.50;;;;;;4947743;28;20027;-68
2021/09/13 02:30:39;;;;;;;1.95;1.75;;;12.90;87.50;;;;;;4952795;28;20051;-68
2021/09/13 02:33:05;;;;;;;1.90;1.80;;;12.80;89.30;;;;;;4948644;28;20062;-68
2021/09/13 02:35:31;;;;;;;2.38;2.20;;;12.90;89.60;;;;;;4949422;29;20027;-68
2021/09/13 02:37:57;;;;;;;2.53;2.33;;;12.90;90.00;;;;;;4949089;29;20106;-68
2021/09/13 02:40:23;;;;;;;2.80;2.08;;;12.80;90.70;;;;;;4951174;28;20027;-68
2021/09/13 02:42:49;;;;;;;2.20;2.00;;;12.80;90.60;;;;;;4955409;28;20039;-68
2021/09/13 02:45:15;;;;;;;3.53;1.88;;;12.80;90.60;;;;;;4950048;28;20117;-68
2021/09/13 02:47:41;;;;;;;2.47;1.60;;;12.80;90.40;;;;;;4948872;28;20194;-68
2021/09/13 02:50:07;;;;;;;2.35;1.85;;;12.80;90.20;;;;;;4946979;28;20023;-68
2021/09/13 02:52:34;;;;;;;1.50;1.40;;;12.80;90.00;;;;;;4952818;28;20106;-67
2021/09/13 02:55:00;;;;;;;2.20;1.80;;;12.80;89.80;;;;;;4956546;28;20030;-68
2021/09/13 02:57:25;;;;;;;1.95;1.63;;;12.80;90.00;;;;;;4955358;28;20488;-68
2021/09/13 02:59:51;;;;;;;1.60;1.50;;;12.80;90.10;;;;;;4949342;28;20035;-68
2021/09/13 03:02:17;;;;;;;1.60;1.10;;;12.70;87.30;;;;;;4963112;28;20039;-68
2021/09/13 03:04:43;;;;;;;1.13;1.08;;;12.60;87.20;;;;;;4954304;28;20042;-68
2021/09/13 03:07:08;;;;;;;1.55;0.82;;;12.50;86.40;;;;;;4949763;28;20031;-68
2021/09/13 03:09:34;;;;;;;1.48;1.38;;;12.40;86.80;;;;;;4950050;28;20046;-68
2021/09/13 03:12:00;;;;;;;1.55;1.45;;;12.50;88.60;;;;;;4969917;28;20030;-67
2021/09/13 03:14:25;;;;;;;1.65;1.10;;;12.50;89.60;;;;;;4948702;28;20027;-68
2021/09/13 03:16:51;;;;;;;0.60;0.60;;;12.50;90.10;;;;;;4957175;28;20031;-68
2021/09/13 03:19:18;;;;;;;2.67;1.58;;;12.40;90.00;;;;;;4946816;28;20044;-68
2021/09/13 03:21:44;;;;;;;1.60;1.50;;;12.30;89.60;;;;;;4955926;28;20046;-68
2021/09/13 03:24:10;;;;;;;1.45;1.35;;;12.40;90.20;;;;;;4945648;28;20125;-68
2021/09/13 03:26:36;;;;;;;2.58;2.38;;;12.40;90.20;;;;;;4955955;28;20220;-68
2021/09/13 03:29:02;;;;;;;3.25;2.03;;;12.40;90.10;;;;;;4948720;28;20023;-68
2021/09/13 03:31:28;;;;;;;1.95;1.85;;;12.40;91.60;;;;;;4944591;28;20031;-68
2021/09/13 03:33:53;;;;;;;2.60;2.00;;;12.40;91.10;;;;;;4946464;28;20050;-68
2021/09/13 03:36:19;;;;;;;2.13;1.92;;;12.40;90.90;;;;;;4948326;28;20102;-69
2021/09/13 03:38:45;;;;;;;1.70;1.60;;;12.50;90.70;;;;;;4949118;28;20741;-67
2021/09/13 03:41:10;;;;;;;2.30;1.80;;;12.40;90.10;;;;;;4946357;28;20062;-68
2021/09/13 03:43:36;;;;;;;4.65;1.75;;;12.40;89.80;;;;;;4949704;28;20027;-68
2021/09/13 03:46:01;;;;;;;1.60;1.50;;;12.30;89.00;;;;;;4948544;28;20023;-68
2021/09/13 03:48:27;;;;;;;1.75;1.40;;;12.30;90.10;;;;;;4942920;28;20035;-68
2021/09/13 03:50:52;;;;;;;1.73;1.40;;;12.30;90.20;;;;;;4947197;28;20028;-69
2021/09/13 03:53:18;;;;;;;1.90;1.70;;;12.30;90.10;;;;;;4950618;28;20027;-68
2021/09/13 03:55:44;;;;;;;1.45;1.35;;;12.30;90.10;;;;;;4963746;28;20031;-70
2021/09/13 03:58:09;;;;;;;0.95;0.95;;;12.30;90.00;;;;;;4949190;28;20032;-68
2021/09/13 04:00:36;;;;;;;1.30;1.30;;;12.20;89.40;;;;;;4949006;28;20035;-67
2021/09/13 04:03:04;;;;;;;1.33;1.25;;;12.20;89.50;;;;;;4948273;28;20101;-68
2021/09/13 04:05:29;;;;;;;1.60;1.50;;;12.20;89.60;;;;;;4953840;28;20038;-68
2021/09/13 04:08:14;;;;;;;1.35;1.15;;;12.10;90.00;;;;;;4971339;28;20039;-68
2021/09/13 04:11:02;;;;;;;1.10;1.10;;;12.10;90.00;;;;;;4945115;28;20035;-68
2021/09/13 04:13:28;;;;;;;1.30;1.30;;;12.10;90.10;;;;;;4948281;28;20499;-68
2021/09/13 04:15:53;;;;;;;1.13;1.02;;;12.10;90.30;;;;;;4946794;28;20061;-68
2021/09/13 04:18:19;;;;;;;1.20;1.20;;;12.10;90.10;;;;;;4949140;28;20035;-68
2021/09/13 04:20:44;;;;;;;1.58;1.48;;;12.10;90.30;;;;;;4950244;29;20036;-68
2021/09/13 04:23:10;;;;;;;1.60;1.50;;;12.10;90.50;;;;;;4950444;28;20047;-68
2021/09/13 04:25:36;;;;;;;1.40;1.30;;;12.20;90.50;;;;;;4951560;28;20035;-68
2021/09/13 04:28:01;;;;;;;1.70;1.50;;;12.10;90.40;;;;;;4955377;28;20114;-67
2021/09/13 04:30:27;;;;;;;2.88;1.67;;;12.10;90.50;;;;;;4962573;28;20122;-67
2021/09/13 04:32:53;;;;;;;1.73;1.63;;;12.10;90.60;;;;;;4947029;28;20114;-68
2021/09/13 04:35:19;;;;;;;1.77;1.67;;;12.00;91.40;;;;;;4952181;28;20525;-68
2021/09/13 04:37:45;;;;;;;1.88;1.65;;;12.00;91.30;;;;;;4964423;28;20122;-72
2021/09/13 04:40:13;;;;;;;2.63;1.80;;;12.10;91.20;;;;;;4950276;28;20136;-68
2021/09/13 04:42:39;;;;;;;2.90;1.80;;;12.00;91.30;;;;;;4952867;28;20086;-68
2021/09/13 04:45:05;;;;;;;3.42;1.65;;;11.80;92.00;;;;;;4948030;28;20118;-68
2021/09/13 04:47:31;;;;;;;2.08;1.75;;;11.80;92.10;;;;;;4951857;28;20039;-68
2021/09/13 04:49:57;;;;;;;2.60;1.42;;;11.90;91.70;;;;;;4950579;28;20558;-68
2021/09/13 04:52:22;;;;;;;1.38;1.25;;;11.90;91.10;;;;;;4951109;28;20504;-68
2021/09/13 04:54:48;;;;;;;2.42;1.58;;;11.90;90.60;;;;;;4951024;28;20031;-68
2021/09/13 04:57:14;;;;;;;1.35;1.25;;;11.90;90.90;;;;;;4954311;28;20101;-68
2021/09/13 04:59:40;;;;;;;3.13;1.40;;;11.90;90.70;;;;;;4952814;28;20031;-68
2021/09/13 05:02:05;;;;;;;1.95;1.30;;;11.90;90.60;;;;;;4951524;28;20038;-68
2021/09/13 05:04:31;;;;;;;1.60;1.25;;;11.90;90.60;;;;;;4955012;28;20659;-68
2021/09/13 05:06:57;;;;;;;2.05;1.60;;;11.90;90.50;;;;;;4953575;28;20411;-68
2021/09/13 05:09:22;;;;;;;4.03;2.42;;;11.80;90.60;;;;;;4955395;28;20035;-67
2021/09/13 05:11:48;;;;;;;4.30;1.52;;;11.90;90.70;;;;;;4952552;28;20027;-68
2021/09/13 05:14:14;;;;;;;1.48;1.38;;;11.90;90.70;;;;;;4951208;28;20504;-67
2021/09/13 05:16:39;;;;;;;2.08;1.88;;;11.90;90.70;;;;;;4946390;28;20035;-68
2021/09/13 05:19:05;;;;;;;2.97;1.35;;;11.90;90.80;;;;;;4969948;28;20035;-68
2021/09/13 05:21:36;;;;;;;1.73;1.60;;;11.80;90.30;;;;;;4959673;28;20057;-68
2021/09/13 05:24:02;;;;;;;5.22;1.67;;;11.80;90.40;;;;;;4950483;28;20040;-68
2021/09/13 05:26:27;;;;;;;1.73;1.60;;;11.80;90.70;;;;;;4954813;28;20372;-68
2021/09/13 05:28:53;;;;;;;1.95;1.70;;;11.80;91.00;;;;;;4947875;28;20049;-67
2021/09/13 05:31:19;;;;;;;2.13;1.70;;;11.80;91.10;;;;;;4949334;28;20626;-67
2021/09/13 05:33:45;;;;;;;1.60;1.50;;;11.90;91.20;;;;;;4949277;28;20127;-68
2021/09/13 05:36:10;;;;;;;1.58;1.48;;;11.80;91.10;;;;;;4950321;28;20477;-69
2021/09/13 05:38:36;;;;;;;2.28;1.35;;;11.80;90.90;;;;;;4956895;28;20062;-69
2021/09/13 05:41:03;;;;;;;1.58;1.33;;;11.80;90.90;;;;;;4947394;28;20039;-69
2021/09/13 05:43:29;;;;;;;5.47;1.23;;;11.80;91.10;;;;;;4954557;28;20038;-68
2021/09/13 05:45:54;;;;;;;1.27;1.17;;;11.80;91.00;;;;;;4955181;28;20027;-68
2021/09/13 05:48:21;;;;;;;1.95;1.70;;;11.80;91.00;;;;;;4959109;28;20417;-68
2021/09/13 05:50:46;;;;;;;2.25;1.80;;;11.80;91.20;;;;;;4947971;28;20024;-68
2021/09/13 05:53:12;;;;;;;2.13;1.90;;;11.70;91.40;;;;;;4951059;28;20668;-68
2021/09/13 05:55:42;;;;;;;2.17;1.98;;;11.80;91.50;;;;;;4956049;28;20039;-69
2021/09/13 05:58:11;;;;;;;2.20;2.00;;;11.80;91.90;;;;;;4951387;28;20170;-68
2021/09/13 06:00:37;;;;;;;2.88;2.25;;;11.80;92.10;;;;;;4967298;28;20043;-68
2021/09/13 06:03:03;;;;;;;2.47;2.08;;;11.80;92.50;;;;;;4950714;28;20031;-68
2021/09/13 06:05:29;;;;;;;3.00;2.10;;;11.90;92.60;;;;;;4957616;28;20063;-69
2021/09/13 06:07:55;;;;;;;2.55;2.30;;;11.90;92.80;;;;;;4949741;28;20055;-69
2021/09/13 06:10:21;;;;;;;2.88;2.30;;;11.90;92.90;;;;;;4948745;28;20035;-69
2021/09/13 06:12:46;;;;;;;2.70;2.40;;;12.00;93.30;;;;;;4953081;28;20039;-69
2021/09/13 06:15:13;;;;;;;2.67;2.30;;;12.10;93.00;;;;;;4951141;28;20114;-69
2021/09/13 06:17:38;;;;;;;2.83;2.63;;;12.20;93.20;;;;;;4948377;29;20051;-68
2021/09/13 06:20:05;;;;;;;2.72;2.45;;;12.20;92.70;;;;;;4949519;28;20044;-68
2021/09/13 06:22:31;;;;;;;3.78;2.90;;;12.30;93.20;;;;;;4955239;28;20130;-68
2021/09/13 06:24:57;;;;;;;6.07;2.85;;;12.30;93.30;;;;;;4949993;28;20047;-67
2021/09/13 06:27:23;;;;;;;4.15;2.75;;;12.40;93.00;;;;;;4949905;28;20109;-67
2021/09/13 06:29:49;;;;;;;3.72;2.97;;;12.50;93.60;;;;;;4957516;28;20059;-67
2021/09/13 06:32:15;;;;;;;2.78;2.58;;;12.60;93.40;;;;;;4949568;28;20046;-68
2021/09/13 06:34:41;;;;;;;3.50;2.50;;;12.70;93.20;;;;;;4952294;28;20428;-68
2021/09/13 06:37:08;;;;;;;3.40;2.72;;;12.80;93.50;;;;;;4950182;29;20057;-68
2021/09/13 06:39:34;;;;;;;4.43;3.13;;;12.90;93.40;;;;;;4950382;28;20061;-68
2021/09/13 06:41:59;;;;;;;5.15;3.45;;;13.00;94.10;;;;;;4951661;28;20042;-68
2021/09/13 06:44:26;;;;;;;4.90;2.90;;;13.10;94.30;;;;;;4969536;28;20387;-68
2021/09/13 06:47:10;;;;;;;3.85;3.40;;;13.10;94.10;;;;;;4949683;28;20031;-68
2021/09/13 06:49:36;;;;;;;5.38;3.80;;;13.20;93.90;;;;;;4945707;28;20045;-68
2021/09/13 06:52:04;;;;;;;5.28;3.95;;;13.30;94.50;;;;;;4948117;28;20030;-67
2021/09/13 06:54:30;;;;;;;6.17;3.50;;;13.40;94.60;;;;;;4953734;28;20023;-68
2021/09/13 06:56:58;;;;;;;5.85;3.58;;;13.50;94.70;;;;;;4957806;28;20504;-68
2021/09/13 06:59:24;;;;;;;6.20;3.90;;;13.60;94.30;;;;;;4942074;28;20659;-67
2021/09/13 07:01:50;;;;;;;5.60;3.85;;;13.70;94.20;;;;;;4967563;28;20035;-68
2021/09/13 07:04:16;;;;;;;5.00;3.85;;;13.70;94.00;;;;;;4948504;28;20031;-68
2021/09/13 07:06:42;;;;;;;6.63;4.38;;;13.80;94.10;;;;;;4945893;28;20031;-68
2021/09/13 07:09:07;;;;;;;9.13;4.43;;;13.80;94.20;;;;;;4945708;28;20484;-69
2021/09/13 07:11:33;;;;;;;5.00;3.53;;;13.90;94.20;;;;;;4950109;28;20057;-69
2021/09/13 07:13:59;;;;;;;5.55;3.67;;;13.90;93.70;;;;;;4950470;28;20108;-68
2021/09/13 07:16:24;;;;;;;4.45;3.47;;;14.00;93.60;;;;;;4963851;28;20031;-69
2021/09/13 07:18:50;;;;;;;6.38;4.40;;;14.10;94.00;;;;;;4950959;28;20027;-68
2021/09/13 07:21:16;;;;;;;7.82;4.60;;;14.10;93.90;;;;;;4948036;28;20070;-69
2021/09/13 07:23:42;;;;;;;6.90;4.35;;;14.20;93.90;;;;;;4964492;28;20054;-69
2021/09/13 07:26:08;;;;;;;6.10;4.35;;;14.20;94.10;;;;;;4947731;28;20032;-68
2021/09/13 07:28:33;;;;;;;10.35;4.93;;;14.30;93.70;;;;;;4951441;28;20031;-68
2021/09/13 07:30:59;;;;;;;7.68;5.45;;;14.30;93.90;;;;;;4957411;28;20027;-68
2021/09/13 07:33:25;;;;;;;6.55;5.10;;;14.40;93.80;;;;;;4948441;29;20172;-69
2021/09/13 07:35:51;;;;;;;8.25;5.45;;;14.50;94.00;;;;;;4952118;28;20027;-69
2021/09/13 07:38:17;;;;;;;7.07;4.55;;;14.60;93.80;;;;;;4954867;28;20119;-69
2021/09/13 07:40:43;;;;;;;7.00;5.35;;;14.70;94.20;;;;;;4947556;28;20150;-69
2021/09/13 07:43:09;;;;;;;7.97;4.93;;;14.70;94.10;;;;;;4947964;28;20056;-69
2021/09/13 07:45:36;;;;;;;9.70;5.28;;;14.90;94.20;;;;;;4949450;28;20035;-69
2021/09/13 07:48:02;;;;;;;9.00;5.43;;;15.00;94.50;;;;;;4941560;28;20457;-69
2021/09/13 07:50:28;;;;;;;10.43;5.95;;;15.10;94.40;;;;;;4950889;28;20043;-69
2021/09/13 07:52:53;;;;;;;7.75;5.22;;;15.30;94.40;;;;;;4958732;28;20035;-69
2021/09/13 07:55:19;;;;;;;9.43;5.55;;;15.40;94.00;;;;;;4951260;28;20074;-69
2021/09/13 07:57:45;;;;;;;7.63;5.28;;;15.60;94.10;;;;;;4945576;28;20091;-69
2021/09/13 08:00:11;;;;;;;7.80;5.25;;;15.70;94.30;;;;;;4950779;28;20034;-69
2021/09/13 08:02:36;;;;;;;10.65;5.78;;;15.80;93.70;;;;;;4947708;28;20101;-69
2021/09/13 08:05:02;;;;;;;7.00;5.05;;;16.00;93.80;;;;;;4947226;28;20035;-70
2021/09/13 08:07:28;;;;;;;9.32;5.75;;;16.10;93.10;;;;;;4958338;28;20420;-69
2021/09/13 08:09:53;;;;;;;9.10;5.80;;;16.30;93.70;;;;;;4951743;28;20031;-69
2021/09/13 08:12:19;;;;;;;13.05;7.50;;;16.50;93.40;;;;;;4949745;28;20527;-69
2021/09/13 08:14:45;;;;;;;10.63;6.68;;;16.60;93.20;;;;;;4946931;28;20019;-67
2021/09/13 08:17:10;;;;;;;10.55;6.32;;;16.80;93.50;;;;;;4952015;28;20058;-68
2021/09/13 08:19:40;;;;;;;11.05;6.15;;;17.00;92.50;;;;;;4948256;28;20039;-68
2021/09/13 08:22:06;;;;;;;10.65;6.68;;;17.10;91.80;;;;;;4947670;28;20034;-68
2021/09/13 08:24:32;;;;;;;8.98;6.10;;;17.10;91.50;;;;;;4948423;28;20118;-69
2021/09/13 08:26:57;;;;;;;10.25;6.60;;;17.20;91.50;;;;;;4953141;28;20177;-69
2021/09/13 08:29:23;;;;;;;10.57;6.25;;;17.30;91.40;;;;;;4950473;28;20054;-69
2021/09/13 08:31:49;;;;;;;9.90;6.07;;;17.30;91.20;;;;;;4963130;28;20032;-68
2021/09/13 08:34:16;;;;;;;9.50;6.47;;;17.40;91.60;;;;;;4951569;28;20019;-69
2021/09/13 08:36:43;;;;;;;9.20;6.18;;;17.50;91.30;;;;;;4949652;28;20110;-69
2021/09/13 08:39:09;;;;;;;8.57;6.20;;;17.60;91.30;;;;;;4948998;28;20027;-68
2021/09/13 08:41:35;;;;;;;9.50;6.20;;;17.70;91.40;;;;;;4950456;28;20027;-68
2021/09/13 08:44:01;;;;;;;11.77;6.15;;;17.80;91.40;;;;;;4965445;28;20034;-68
2021/09/13 08:46:42;;;;;;;12.93;6.50;;;18.00;91.00;;;;;;4948244;28;20035;-70
2021/09/13 08:49:11;;;;;;;8.98;5.68;;;18.10;91.00;;;;;;4947118;28;20452;-70
2021/09/13 08:51:37;;;;;;;7.72;5.03;;;18.20;90.60;;;;;;4962427;28;20051;-69
2021/09/13 08:54:06;;;;;;;7.53;5.93;;;18.40;88.40;;;;;;4967747;28;20032;-69
2021/09/13 08:56:38;;;;;;;6.78;5.03;;;18.70;89.80;;;;;;4953805;28;20035;-68
2021/09/13 08:59:05;;;;;;;8.20;5.20;;;18.80;84.80;;;;;;4948766;28;20457;-68
2021/09/13 09:01:32;;;;;;;7.47;5.28;;;18.70;86.30;;;;;;4954450;28;20596;-68
2021/09/13 09:03:58;;;;;;;7.67;4.67;;;18.60;83.10;;;;;;4947497;28;20031;-69
2021/09/13 09:06:34;;;;;;;10.90;4.90;;;18.60;81.40;;;;;;4948394;28;20458;-67
2021/09/13 09:09:05;;;;;;;10.10;4.90;;;18.50;83.80;;;;;;4951278;28;20022;-68
2021/09/13 09:12:01;;;;;;;11.18;6.45;;;18.40;84.50;;;;;;4949108;28;20052;-68
2021/09/13 09:14:41;;;;;;;7.63;5.43;;;18.30;85.30;;;;;;4962815;28;20131;-68
2021/09/13 09:17:20;;;;;;;8.02;5.97;;;18.60;88.30;;;;;;4950125;28;20107;-68
2021/09/13 09:19:46;;;;;;;9.57;6.32;;;18.80;88.20;;;;;;4948082;28;20113;-68
2021/09/13 09:22:25;;;;;;;10.23;6.13;;;19.00;88.30;;;;;;4951742;28;20026;-68
2021/09/13 09:24:53;;;;;;;8.70;5.63;;;19.10;85.30;;;;;;4950963;28;20049;-68
2021/09/13 09:27:19;;;;;;;;;;;19.20;84.50;;;;;;4952736;28;20027;-68
2021/09/13 09:29:45;;;;;;;12.15;5.28;;;19.40;85.80;;;;;;4954069;28;20304;-68
2021/09/13 09:32:20;;;;;;;7.38;4.60;;;19.50;86.20;;;;;;4953112;28;20039;-67
2021/09/13 09:34:45;;;;;;;8.68;5.25;;;19.60;82.00;;;;;;4951901;28;20016;-68
2021/09/13 09:37:12;;;;;;;6.93;4.45;;;19.60;81.20;;;;;;4966672;28;20037;-68
2021/09/13 09:39:54;;;;;;;5.18;3.83;;;19.70;80.00;;;;;;4950634;28;20114;-67
2021/09/13 09:42:31;;;;;;;5.53;3.90;;;19.70;80.90;;;;;;4949139;28;20035;-67
2021/09/13 09:44:59;;;;;;;3.90;3.50;;;19.70;76.60;;;;;;4950272;28;20696;-68
2021/09/13 09:47:25;;;;;;;4.32;3.30;;;19.70;77.20;;;;;;4950556;28;20047;-68
2021/09/13 09:49:56;;;;;;;7.43;3.83;;;19.70;77.70;;;;;;4953584;28;20035;-68
2021/09/13 09:52:36;;;;;;;4.40;3.80;;;19.90;80.50;;;;;;4966621;28;20106;-68
2021/09/13 09:55:18;;;;;;;5.65;3.53;;;19.90;75.70;;;;;;4953801;28;20023;-68
2021/09/13 09:58:02;;;;;;;5.05;3.50;;;20.00;78.10;;;;;;4951925;28;20062;-67
2021/09/13 10:00:28;;;;;;;4.47;3.60;;;20.10;77.00;;;;;;4961725;28;20047;-68
2021/09/13 10:02:55;;;;;;;5.30;3.95;;;20.30;76.60;;;;;;4968672;28;20614;-69
2021/09/13 10:05:23;;;;;;;5.22;3.97;;;20.30;76.70;;;;;;4950573;29;20027;-68
2021/09/13 10:07:50;;;;;;;5.13;3.75;;;20.30;75.30;;;;;;4948759;28;20157;-67
2021/09/13 10:10:17;;;;;;;5.05;3.42;;;20.40;76.30;;;;;;4964562;28;20021;-68
2021/09/13 10:12:43;;;;;;;6.07;4.00;;;20.30;75.10;;;;;;4949728;28;20024;-68
2021/09/13 10:15:09;;;;;;;4.43;3.88;;;20.40;77.00;;;;;;4949071;28;20029;-68
2021/09/13 10:17:35;;;;;;;7.72;4.65;;;20.50;78.30;;;;;;4953592;28;20035;-68
2021/09/13 10:20:03;;;;;;;4.90;3.83;;;20.60;77.10;;;;;;4952102;28;20110;-68
2021/09/13 10:22:33;;;;;;;7.32;4.22;;;20.60;74.60;;;;;;4949267;28;20697;-69
2021/09/13 10:24:59;;;;;;;5.90;4.20;;;20.50;73.70;;;;;;4950113;28;20027;-67
2021/09/13 10:27:26;;;;;;;6.15;4.65;;;20.60;75.80;;;;;;4951866;28;20051;-68
2021/09/13 10:30:19;;;;;;;5.40;4.47;;;20.80;75.40;;;;;;4952042;28;20540;-68
2021/09/13 10:32:46;;;;;;;5.18;3.95;;;20.80;75.00;;;;;;4950358;28;20505;-68
2021/09/13 10:35:14;;;;;;;5.47;4.65;;;20.80;76.60;;;;;;4953416;28;20026;-68
2021/09/13 10:37:43;;;;;;;;;;;20.90;73.80;;;;;;4950664;28;20031;-68
2021/09/13 10:40:25;;;;;;;7.47;5.10;;;20.90;77.30;;;;;;4952627;28;20052;-68
2021/09/13 10:42:52;;;;;;;5.65;5.07;;;21.10;76.80;;;;;;4952188;28;20042;-68
2021/09/13 10:45:25;;;;;;;5.90;4.90;;;21.10;75.10;;;;;;4949820;28;20039;-68
2021/09/13 10:48:03;;;;;;;4.80;3.80;;;21.10;74.00;;;;;;4950175;28;20043;-68
2021/09/13 10:50:32;;;;;;;5.00;3.85;;;21.10;74.80;;;;;;4965183;28;20086;-68
2021/09/13 10:52:59;;;;;;;7.30;4.18;;;21.20;73.50;;;;;;4952365;29;20567;-68
2021/09/13 10:55:27;;;;;;;5.40;3.50;;;21.20;71.20;;;;;;4951366;28;20026;-68
2021/09/13 10:58:02;;;;;;;;;;;21.10;70.60;;;;;;4951577;28;20031;-68
2021/09/13 11:00:40;;;;;;;5.45;3.47;;;21.10;70.40;;;;;;4949915;28;19946;-68
2021/09/13 11:06:24;;;;;;;4.38;3.28;;;21.20;73.30;;;;;;4951732;28;20039;-68
2021/09/13 11:08:55;;;;;;;5.32;3.42;;;21.30;72.10;;;;;;4949227;28;20469;-68
2021/09/13 11:11:25;;;;;;;3.28;2.97;;;21.40;71.60;;;;;;4952410;28;20489;-68
2021/09/13 11:14:17;;;;;;;3.70;3.08;;;21.40;70.60;;;;;;4949800;28;20031;-68
2021/09/13 11:16:51;;;;;;;4.20;3.20;;;21.40;68.00;;;;;;4953056;28;20019;-68
2021/09/13 11:19:19;;;;;;;4.78;3.40;;;21.40;70.00;;;;;;4951298;28;20019;-68
2021/09/13 11:21:47;;;;;;;4.07;2.93;;;21.30;72.30;;;;;;4965981;28;20038;-68
2021/09/13 11:24:21;;;;;;;3.42;3.10;;;21.30;70.00;;;;;;4951017;28;20282;-68
2021/09/13 11:26:56;;;;;;;3.38;3.08;;;21.40;70.80;;;;;;4951980;29;20209;-68
2021/09/13 11:29:30;;;;;;;3.30;2.70;;;21.50;69.20;;;;;;4949012;28;20030;-68
2021/09/13 11:32:00;;;;;;;5.38;2.97;;;21.60;70.20;;;;;;4949626;28;20480;-68
2021/09/13 11:34:36;;;;;;;3.60;3.20;;;21.80;71.40;;;;;;4956729;28;20078;-67
2021/09/13 11:37:06;;;;;;;3.83;3.00;;;21.80;67.30;;;;;;4951170;28;20062;-68
2021/09/13 11:39:44;;;;;;;4.35;3.28;;;21.80;67.90;;;;;;4950128;28;20066;-68
2021/09/13 11:42:12;;;;;;;3.38;2.97;;;21.70;69.20;;;;;;4951826;28;20038;-68
2021/09/13 11:44:40;;;;;;;3.40;3.10;;;21.80;68.70;;;;;;4963935;28;20125;-68
2021/09/13 11:47:06;;;;;;;4.07;3.28;;;21.80;67.70;;;;;;4948649;28;20041;-68
2021/09/13 11:49:34;;;;;;;3.83;3.08;;;21.80;67.00;;;;;;4951187;28;20039;-68
2021/09/13 11:51:59;;;;;;;4.28;2.85;;;21.70;66.60;;;;;;4955872;28;20027;-68
2021/09/13 11:54:25;;;;;;;12.48;3.50;;;21.80;68.00;;;;;;4949279;28;20362;-68
2021/09/13 11:56:51;;;;;;;3.13;2.83;;;21.90;68.80;;;;;;4951427;28;20031;-70
2021/09/13 11:59:24;;;;;;;3.67;3.22;;;21.90;67.90;;;;;;4950540;28;20050;-68
2021/09/13 12:02:03;;;;;;;4.80;2.92;;;21.90;67.10;;;;;;4947285;28;20035;-68
2021/09/13 12:04:29;;;;;;;3.70;2.97;;;22.00;66.80;;;;;;4952839;28;20082;-68
2021/09/13 12:07:09;;;;;;;4.05;3.38;;;22.10;67.30;;;;;;4952940;28;20161;-68
2021/09/13 12:09:38;;;;;;;3.88;3.47;;;22.10;66.80;;;;;;4952019;28;20026;-68
2021/09/13 12:12:05;;;;;;;4.63;3.03;;;22.20;67.70;;;;;;4952043;28;20034;-68
2021/09/13 12:14:33;;;;;;;2.85;2.63;;;22.20;65.80;;;;;;4951123;28;20413;-68
2021/09/13 12:17:15;;;;;;;;;;;22.10;67.00;;;;;;4951385;28;20027;-68
2021/09/13 12:19:49;;;;;;;3.15;2.85;;;22.00;65.70;;;;;;4948678;28;20294;-68
2021/09/13 12:22:17;;;;;;;3.33;3.00;;;22.00;67.80;;;;;;4947897;28;20581;-68
2021/09/13 12:24:45;;;;;;;3.83;3.45;;;21.90;69.30;;;;;;4952423;28;20054;-68
2021/09/13 12:27:38;;;;;;;3.88;3.20;;;22.00;67.80;;;;;;4950340;28;20144;-68
2021/09/13 12:30:07;;;;;;;3.05;2.75;;;22.10;69.00;;;;;;4943335;28;20078;-68
2021/09/13 12:32:35;;;;;;;3.58;3.22;;;22.30;70.00;;;;;;4949283;28;20036;-68
2021/09/13 12:35:03;;;;;;;3.35;3.03;;;22.30;69.20;;;;;;4951213;28;20027;-69
2021/09/13 12:37:33;;;;;;;3.38;3.00;;;22.30;67.20;;;;;;4950448;28;20043;-67
2021/09/13 12:40:00;;;;;;;3.13;2.83;;;22.30;69.60;;;;;;4948836;28;20786;-68
2021/09/13 12:42:26;;;;;;;4.55;3.03;;;22.20;68.90;;;;;;4946558;28;20042;-68
2021/09/13 12:45:03;;;;;;;4.00;3.15;;;22.20;68.70;;;;;;4950060;28;20027;-68
2021/09/13 12:47:29;;;;;;;3.00;2.70;;;22.20;68.50;;;;;;4948876;28;20138;-69
2021/09/13 12:49:55;;;;;;;5.15;3.28;;;22.10;70.80;;;;;;4954342;28;20094;-69
2021/09/13 12:52:21;;;;;;;3.05;2.78;;;22.20;69.40;;;;;;4952243;28;20066;-69
2021/09/13 12:54:48;;;;;;;3.20;2.90;;;22.30;69.30;;;;;;4953333;28;20118;-68